Depauw, Indiana
Current Conditions -  °F | °C
As of 11:56 PM on Friday 21 Nov 2014 (Local Time) from KSDF Reporting Station
Overcast Overcast  
Wind Chill: 36°   Ceiling: 4600
Heat Index: 36°   Visibility: 10mi
Dew Point: 16°   Wind: 0mph
Humidity: 44%   Direction: NA
Pressure: 30.37"   Gusts: NA
Location:  38.33°N, 86.22°W
Report Text: KSDF 220456Z 00000KT 10SM BKN046 OVC065 02/M09 A3037 RMK AO2 SLP287 T00221089 400561067
Loading
Personal Weather Stations






























Interactive Weather Map New forecast layout! Learn more

10-Day Weather Forecast

Advertisements
Track Severe Weather on mobile